createdAt,value
2018-08-03T00:02:21.372Z,14.47
2018-08-03T00:04:51.078Z,14.63
2018-08-03T00:07:19.543Z,14.70
2018-08-03T00:09:47.689Z,14.13
2018-08-03T00:12:16.162Z,14.87
2018-08-03T00:14:44.634Z,14.57
2018-08-03T00:17:13.089Z,15.67
2018-08-03T00:19:41.712Z,15.23
2018-08-03T00:22:10.209Z,14.00
2018-08-03T00:24:39.077Z,15.30
2018-08-03T00:27:07.597Z,14.30
2018-08-03T00:29:36.105Z,14.63
2018-08-03T00:32:04.806Z,13.63
2018-08-03T00:34:34.070Z,15.30
2018-08-03T00:37:02.539Z,14.70
2018-08-03T00:39:31.073Z,14.10
2018-08-03T00:41:59.520Z,14.77
2018-08-03T00:44:27.724Z,15.83
2018-08-03T00:46:56.145Z,13.40
2018-08-03T00:49:25.677Z,13.70
2018-08-03T00:51:53.772Z,14.27
2018-08-03T00:54:22.220Z,15.10
2018-08-03T00:56:50.652Z,14.50
2018-08-03T00:59:19.078Z,15.30
2018-08-03T01:01:47.495Z,15.60
2018-08-03T01:04:16.010Z,15.90
2018-08-03T01:06:44.438Z,14.40
2018-08-03T01:09:13.621Z,15.10
2018-08-03T01:11:42.091Z,14.33
2018-08-03T01:14:11.037Z,14.70
2018-08-03T01:16:40.225Z,14.73
2018-08-03T01:19:10.239Z,15.87
2018-08-03T01:21:38.718Z,15.67
2018-08-03T01:24:06.890Z,15.03
2018-08-03T01:26:35.321Z,15.30
2018-08-03T01:29:04.918Z,15.00
2018-08-03T01:31:33.332Z,16.27
2018-08-03T01:34:01.778Z,14.40
2018-08-03T01:36:30.200Z,15.33
2018-08-03T01:38:58.693Z,14.63
2018-08-03T01:41:27.161Z,15.67
2018-08-03T01:43:55.597Z,16.23
2018-08-03T01:46:24.061Z,14.70
2018-08-03T01:48:52.504Z,15.00
2018-08-03T01:51:20.957Z,15.10
2018-08-03T01:53:49.385Z,15.37
2018-08-03T01:56:18.065Z,15.10
2018-08-03T01:58:46.553Z,16.53
2018-08-03T02:01:15.037Z,14.20
2018-08-03T02:03:43.486Z,15.47
2018-08-03T02:06:11.944Z,16.30
2018-08-03T02:08:40.881Z,14.63
2018-08-03T02:11:09.292Z,16.43
2018-08-03T02:13:37.728Z,15.70
2018-08-03T02:16:06.139Z,16.33
2018-08-03T02:18:34.590Z,15.10
2018-08-03T02:21:03.117Z,15.30
2018-08-03T02:23:31.569Z,15.60
2018-08-03T02:26:00.022Z,16.47
2018-08-03T02:28:28.449Z,16.27
2018-08-03T02:30:56.904Z,17.57
2018-08-03T02:33:25.374Z,16.57
2018-08-03T02:35:53.822Z,17.07
2018-08-03T02:38:22.248Z,16.60
2018-08-03T02:40:50.709Z,16.00
2018-08-03T02:43:19.162Z,16.10
2018-08-03T02:45:47.625Z,15.10
2018-08-03T02:48:16.103Z,16.00
2018-08-03T02:50:44.260Z,15.90
2018-08-03T02:53:12.705Z,16.40
2018-08-03T02:55:41.178Z,16.20
2018-08-03T02:58:09.715Z,16.20
2018-08-03T03:00:38.185Z,17.57
2018-08-03T03:03:06.677Z,16.67
2018-08-03T03:05:35.113Z,16.50
2018-08-03T03:08:03.609Z,16.30
2018-08-03T03:10:32.049Z,15.63
2018-08-03T03:13:00.522Z,16.30
2018-08-03T03:15:28.639Z,17.00
2018-08-03T03:17:57.065Z,15.73
2018-08-03T03:20:25.520Z,15.77
2018-08-03T03:22:54.193Z,16.03
2018-08-03T03:25:22.892Z,16.47
2018-08-03T03:27:51.573Z,16.80
2018-08-03T03:30:20.339Z,17.20
2018-08-03T03:32:48.761Z,17.50
2018-08-03T03:35:17.198Z,18.57
2018-08-03T03:37:45.652Z,17.47
2018-08-03T03:40:14.236Z,16.73
2018-08-03T03:42:42.699Z,18.10
2018-08-03T03:45:11.194Z,16.60
2018-08-03T03:47:39.582Z,17.23
2018-08-03T03:50:08.076Z,17.80
2018-08-03T03:52:36.532Z,16.83
2018-08-03T03:55:05.014Z,16.80
2018-08-03T03:57:33.170Z,18.37
2018-08-03T04:00:01.594Z,17.13
2018-08-03T04:02:30.035Z,15.43
2018-08-03T04:04:58.453Z,16.13
2018-08-03T04:07:27.349Z,18.00
2018-08-03T04:09:55.803Z,21.17
2018-08-03T04:12:24.477Z,19.00
2018-08-03T04:14:52.897Z,17.70
2018-08-03T04:17:21.565Z,17.80
2018-08-03T04:19:51.935Z,17.93
2018-08-03T04:22:20.680Z,17.13
2018-08-03T04:24:49.097Z,17.90
2018-08-03T04:27:17.557Z,16.63
2018-08-03T04:29:46.357Z,16.83
2018-08-03T04:32:14.799Z,18.03
2018-08-03T04:34:43.265Z,17.03
2018-08-03T04:37:11.738Z,17.73
2018-08-03T04:39:40.169Z,17.83
2018-08-03T04:42:08.640Z,17.60
2018-08-03T04:44:37.078Z,18.83
2018-08-03T04:47:05.551Z,16.43
2018-08-03T04:49:33.985Z,16.80
2018-08-03T04:52:02.152Z,17.60
2018-08-03T04:54:30.819Z,15.97
2018-08-03T04:56:59.301Z,16.00
2018-08-03T04:59:28.067Z,15.53
2018-08-03T05:01:56.525Z,15.83
2018-08-03T05:04:25.077Z,15.90
2018-08-03T05:06:53.529Z,16.80
2018-08-03T05:09:22.065Z,17.10
2018-08-03T05:11:50.761Z,15.73
2018-08-03T05:14:19.478Z,16.70
2018-08-03T05:16:47.910Z,16.43
2018-08-03T05:19:16.550Z,15.73
2018-08-03T05:21:45.002Z,17.43
2018-08-03T05:24:13.590Z,16.80
2018-08-03T05:26:42.011Z,16.50
2018-08-03T05:29:10.466Z,18.10
2018-08-03T05:31:39.135Z,18.60
2018-08-03T05:34:07.618Z,18.07
2018-08-03T05:36:36.084Z,18.30
2018-08-03T05:39:08.133Z,18.40
2018-08-03T05:41:36.694Z,18.67
2018-08-03T05:44:05.201Z,17.47
2018-08-03T05:46:33.641Z,17.93
2018-08-03T05:49:03.705Z,19.20
2018-08-03T05:51:32.109Z,18.43
2018-08-03T05:54:00.570Z,17.87
2018-08-03T05:56:28.945Z,18.63
2018-08-03T05:58:57.417Z,18.10
2018-08-03T06:01:25.829Z,19.90
2018-08-03T06:03:54.941Z,20.00
2018-08-03T06:06:23.369Z,18.90
2018-08-03T06:08:52.131Z,17.87
2018-08-03T06:11:20.593Z,18.70
2018-08-03T06:13:49.050Z,19.67
2018-08-03T06:16:17.649Z,17.97
2018-08-03T06:18:46.103Z,18.80
2018-08-03T06:21:14.531Z,18.70
2018-08-03T06:23:43.243Z,18.60
2018-08-03T06:26:11.782Z,18.63
2018-08-03T06:28:40.270Z,18.57
2018-08-03T06:31:08.936Z,19.03
2018-08-03T06:33:37.407Z,19.00
2018-08-03T06:36:05.889Z,17.83
2018-08-03T06:38:34.307Z,17.30
2018-08-03T06:41:02.774Z,18.00
2018-08-03T06:43:31.204Z,18.40
2018-08-03T06:45:59.649Z,18.40
2018-08-03T06:48:28.077Z,18.30
2018-08-03T06:50:56.556Z,19.17
2018-08-03T06:53:25.066Z,19.10
2018-08-03T06:55:53.534Z,19.37
2018-08-03T06:58:21.648Z,18.23
2018-08-03T07:00:50.130Z,18.30
2018-08-03T07:03:18.713Z,19.50
2018-08-03T07:05:47.149Z,18.37
2018-08-03T07:08:15.637Z,17.10
2018-08-03T07:10:43.845Z,17.40
2018-08-03T07:13:12.392Z,18.73
2018-08-03T07:15:40.524Z,17.87
2018-08-03T07:18:08.986Z,18.00
2018-08-03T07:20:38.115Z,17.50
2018-08-03T07:23:06.541Z,19.80
2018-08-03T07:25:35.591Z,19.93
2018-08-03T07:28:04.082Z,18.73
2018-08-03T07:30:32.682Z,20.63
2018-08-03T07:33:01.119Z,20.10
2018-08-03T07:35:29.821Z,20.17
2018-08-03T07:37:58.274Z,20.90
2018-08-03T07:40:26.745Z,20.03
2018-08-03T07:42:55.214Z,19.40
2018-08-03T07:45:23.671Z,20.60
2018-08-03T07:47:52.098Z,20.50
2018-08-03T07:50:20.560Z,19.83
2018-08-03T07:52:48.694Z,20.37
2018-08-03T07:55:17.161Z,18.87
2018-08-03T07:57:45.598Z,17.73
2018-08-03T08:00:14.078Z,17.10
2018-08-03T08:02:42.221Z,18.60
2018-08-03T08:05:10.685Z,17.97
2018-08-03T08:07:39.182Z,17.07
2018-08-03T08:10:07.757Z,18.27
2018-08-03T08:12:36.196Z,17.67
2018-08-03T08:15:05.295Z,16.10
2018-08-03T08:17:33.773Z,19.10
2018-08-03T08:20:02.531Z,19.53
2018-08-03T08:22:30.978Z,19.53
2018-08-03T08:24:59.404Z,18.63
2018-08-03T08:27:27.880Z,17.90
2018-08-03T08:29:56.661Z,18.33
2018-08-03T08:32:25.111Z,17.43
2018-08-03T08:34:53.554Z,17.80
2018-08-03T08:37:22.003Z,18.30
2018-08-03T08:39:50.421Z,16.63
2018-08-03T08:42:18.904Z,17.23
2018-08-03T08:44:47.357Z,15.90
2018-08-03T08:47:15.524Z,16.50
2018-08-03T08:49:49.741Z,17.20
2018-08-03T08:52:18.522Z,15.60
2018-08-03T08:54:47.015Z,15.93
2018-08-03T08:57:15.484Z,15.90
2018-08-03T08:59:45.131Z,14.20
2018-08-03T09:02:13.589Z,14.30
2018-08-03T09:04:42.038Z,15.03
2018-08-03T09:07:10.532Z,14.70
2018-08-03T09:09:42.137Z,14.13
2018-08-03T09:12:10.650Z,13.60
2018-08-03T09:14:39.112Z,13.67
2018-08-03T09:17:08.315Z,14.20
2018-08-03T09:19:36.832Z,13.50
2018-08-03T09:22:05.711Z,13.93
2018-08-03T09:24:34.195Z,13.77
2018-08-03T09:27:04.354Z,13.20
2018-08-03T09:29:33.324Z,13.77
2018-08-03T09:32:02.208Z,14.30
2018-08-03T09:34:30.751Z,13.67
2018-08-03T09:37:00.152Z,13.20
2018-08-03T09:39:28.718Z,12.80
2018-08-03T09:42:00.069Z,13.50
2018-08-03T09:44:29.415Z,14.90
2018-08-03T09:46:58.596Z,14.10
2018-08-03T09:49:27.181Z,13.97
2018-08-03T09:51:55.684Z,13.20
2018-08-03T09:54:24.206Z,13.63
2018-08-03T09:56:53.017Z,15.10
2018-08-03T09:59:21.911Z,13.83
2018-08-03T10:01:50.432Z,14.33
2018-08-03T10:04:18.921Z,15.67
2018-08-03T10:06:47.382Z,15.47
2018-08-03T10:09:15.848Z,15.67
2018-08-03T10:11:44.355Z,13.60
2018-08-03T10:14:12.865Z,16.40
2018-08-03T10:16:41.555Z,14.97
2018-08-03T10:19:10.030Z,15.33
2018-08-03T10:21:39.229Z,15.23
2018-08-03T10:24:07.917Z,15.30
2018-08-03T10:26:36.398Z,15.30
2018-08-03T10:29:05.533Z,14.90
2018-08-03T10:31:33.998Z,15.23
2018-08-03T10:34:02.494Z,15.03
2018-08-03T10:36:30.647Z,15.87
2018-08-03T10:38:59.194Z,14.00
2018-08-03T10:41:28.581Z,15.37
2018-08-03T10:44:01.687Z,15.73
2018-08-03T10:46:31.937Z,15.77
2018-08-03T10:49:01.047Z,16.40
2018-08-03T10:51:30.851Z,15.53
2018-08-03T10:54:02.308Z,14.40
2018-08-03T10:56:31.899Z,15.63
2018-08-03T10:59:06.611Z,15.30
2018-08-03T11:01:36.537Z,14.97
2018-08-03T11:04:05.846Z,15.43
2018-08-03T11:06:35.390Z,14.57
2018-08-03T11:09:06.719Z,15.13
2018-08-03T11:11:37.979Z,15.23
2018-08-03T11:14:09.841Z,13.97
2018-08-03T11:16:41.241Z,14.80
2018-08-03T11:21:55.170Z,14.53
2018-08-03T11:24:25.481Z,13.43
2018-08-03T11:26:56.197Z,12.27
2018-08-03T11:29:32.387Z,14.23
2018-08-03T11:32:03.825Z,13.67
2018-08-03T11:34:33.089Z,13.50
2018-08-03T11:37:03.649Z,13.47
2018-08-03T11:39:34.329Z,13.50
2018-08-03T11:42:04.918Z,12.90
2018-08-03T11:44:34.839Z,13.60
2018-08-03T11:47:05.291Z,13.13
2018-08-03T11:49:36.479Z,12.30
2018-08-03T11:52:06.453Z,15.03
2018-08-03T11:54:36.883Z,14.13
2018-08-03T11:57:06.294Z,15.13
2018-08-03T11:59:36.446Z,15.43
2018-08-03T12:02:06.283Z,13.47
2018-08-03T12:04:35.973Z,12.77
2018-08-03T12:07:06.188Z,14.20
2018-08-03T12:09:35.666Z,14.30
2018-08-03T12:12:05.566Z,12.80
2018-08-03T12:14:34.781Z,12.30
2018-08-03T12:17:05.158Z,14.30
2018-08-03T12:19:34.885Z,13.43
2018-08-03T12:22:04.910Z,12.90
2018-08-03T12:24:34.830Z,13.50
2018-08-03T12:27:30.759Z,13.50
2018-08-03T12:30:05.934Z,12.93
2018-08-03T12:32:36.406Z,13.30
2018-08-03T12:35:05.895Z,13.50
2018-08-03T12:37:35.873Z,12.77
2018-08-03T12:40:05.974Z,13.57
2018-08-03T12:42:35.415Z,13.30
2018-08-03T12:45:05.371Z,12.70
2018-08-03T12:47:34.805Z,13.40
2018-08-03T12:50:05.267Z,12.17
2018-08-03T12:52:37.073Z,12.40
2018-08-03T12:55:06.870Z,12.43
2018-08-03T12:57:36.581Z,12.90
2018-08-03T13:00:07.834Z,13.30
2018-08-03T13:02:37.915Z,12.37
2018-08-03T13:05:07.757Z,13.33
2018-08-03T13:07:37.462Z,12.37
2018-08-03T13:10:07.992Z,13.30
2018-08-03T13:12:39.665Z,13.17
2018-08-03T13:15:10.319Z,13.37
2018-08-03T13:17:42.317Z,12.70
2018-08-03T13:20:12.676Z,12.30
2018-08-03T13:22:44.937Z,12.87
2018-08-03T13:25:14.908Z,12.40
2018-08-03T13:27:44.588Z,12.37
2018-08-03T13:30:15.300Z,13.00
2018-08-03T13:32:44.820Z,12.80
2018-08-03T13:35:14.634Z,12.27
2018-08-03T13:37:46.924Z,12.13
2018-08-03T13:40:17.905Z,12.00
2018-08-03T13:42:46.589Z,12.73
2018-08-03T13:45:15.058Z,11.60
2018-08-03T13:47:43.590Z,12.70
2018-08-03T13:50:12.134Z,13.20
2018-08-03T13:52:40.620Z,12.60
2018-08-03T13:55:09.465Z,11.90
2018-08-03T13:57:37.972Z,11.47
2018-08-03T14:00:08.358Z,12.07
2018-08-03T14:02:36.824Z,12.87
2018-08-03T14:05:06.457Z,12.63
2018-08-03T14:07:34.954Z,11.93
2018-08-03T14:10:03.457Z,12.50
2018-08-03T14:12:31.937Z,12.80
2018-08-03T14:15:00.371Z,12.10
2018-08-03T14:17:28.886Z,12.97
2018-08-03T14:19:57.333Z,13.13
2018-08-03T14:22:25.777Z,12.13
2018-08-03T14:24:54.435Z,12.90
2018-08-03T14:27:22.866Z,10.70
2018-08-03T14:29:51.314Z,11.40
2018-08-03T14:32:19.776Z,12.20
2018-08-03T14:34:48.278Z,11.30
2018-08-03T14:37:16.717Z,12.70
2018-08-03T14:39:45.155Z,12.07
2018-08-03T14:42:13.624Z,12.10
2018-08-03T14:44:42.061Z,11.10
2018-08-03T14:47:17.616Z,11.63
2018-08-03T14:49:51.098Z,10.67
2018-08-03T14:52:19.570Z,11.27
2018-08-03T14:54:48.031Z,11.90
2018-08-03T14:57:16.525Z,12.63
2018-08-03T14:59:44.974Z,11.93
2018-08-03T15:02:13.482Z,11.90
2018-08-03T15:04:41.910Z,11.87
2018-08-03T15:07:10.403Z,11.60
2018-08-03T15:09:39.086Z,12.10
2018-08-03T15:12:07.601Z,11.40
2018-08-03T15:14:36.058Z,10.57
2018-08-03T15:17:04.558Z,12.50
2018-08-03T15:19:33.089Z,11.93
2018-08-03T15:22:01.510Z,10.87
2018-08-03T15:24:30.029Z,11.57
2018-08-03T15:26:58.505Z,12.60
2018-08-03T15:29:26.917Z,11.23
2018-08-03T15:31:55.354Z,11.83
2018-08-03T15:34:23.821Z,12.40
2018-08-03T15:36:52.500Z,11.60
2018-08-03T15:39:20.945Z,11.63
2018-08-03T15:41:50.326Z,12.23
2018-08-03T15:44:18.811Z,12.00
2018-08-03T15:46:47.280Z,12.13
2018-08-03T15:49:15.726Z,11.50
2018-08-03T15:51:44.210Z,11.30
2018-08-03T15:54:12.365Z,13.00
2018-08-03T15:56:40.842Z,12.80
2018-08-03T15:59:09.592Z,11.27
2018-08-03T16:01:38.082Z,10.63
2018-08-03T16:04:06.533Z,11.53
2018-08-03T16:06:35.007Z,12.43
2018-08-03T16:09:04.634Z,12.07
2018-08-03T16:11:33.103Z,12.70
2018-08-03T16:14:01.844Z,11.97
2018-08-03T16:16:30.266Z,11.10
2018-08-03T16:18:58.743Z,11.00
2018-08-03T16:21:27.224Z,12.03
2018-08-03T16:23:55.705Z,11.53
2018-08-03T16:26:24.144Z,11.50
2018-08-03T16:28:52.679Z,11.00
2018-08-03T16:31:21.140Z,10.87
2018-08-03T16:33:49.568Z,11.10
2018-08-03T16:36:18.010Z,11.80
2018-08-03T16:38:46.489Z,10.67
2018-08-03T16:41:14.864Z,10.37
2018-08-03T16:43:43.697Z,11.33
2018-08-03T16:46:12.262Z,11.30
2018-08-03T16:48:40.710Z,11.50
2018-08-03T16:51:09.180Z,10.70
2018-08-03T16:53:37.719Z,11.70
2018-08-03T16:56:06.196Z,11.00
2018-08-03T16:58:34.658Z,11.70
2018-08-03T17:01:03.134Z,10.97
2018-08-03T17:03:31.680Z,12.57
2018-08-03T17:06:00.118Z,11.73
2018-08-03T17:08:28.586Z,12.27
2018-08-03T17:10:57.019Z,11.63
2018-08-03T17:13:25.455Z,12.87
2018-08-03T17:15:53.929Z,11.77
2018-08-03T17:18:34.414Z,11.50
2018-08-03T17:21:02.889Z,11.80
2018-08-03T17:23:31.381Z,11.07
2018-08-03T17:26:01.226Z,10.93
2018-08-03T17:28:29.393Z,11.40
2018-08-03T17:30:58.370Z,11.60
2018-08-03T17:33:28.138Z,11.93
2018-08-03T17:35:56.954Z,11.80
2018-08-03T17:38:25.686Z,12.00
2018-08-03T17:40:54.190Z,11.43
2018-08-03T17:43:23.085Z,11.93
2018-08-03T17:45:51.552Z,11.50
2018-08-03T17:48:20.090Z,11.10
2018-08-03T17:50:48.606Z,11.03
2018-08-03T17:53:17.060Z,11.97
2018-08-03T17:55:45.782Z,10.97
2018-08-03T17:58:14.234Z,11.37
2018-08-03T18:00:42.697Z,11.07
2018-08-03T18:03:11.168Z,11.40
2018-08-03T18:05:39.683Z,11.90
2018-08-03T18:08:08.389Z,11.83
2018-08-03T18:10:36.923Z,10.67
2018-08-03T18:13:05.073Z,11.20
2018-08-03T18:15:33.611Z,11.10
2018-08-03T18:18:02.054Z,11.93
2018-08-03T18:20:30.213Z,11.20
2018-08-03T18:22:59.114Z,11.20
2018-08-03T18:25:27.610Z,10.90
2018-08-03T18:27:56.090Z,10.53
2018-08-03T18:30:24.577Z,11.90
2018-08-03T18:32:53.037Z,10.93
2018-08-03T18:35:21.513Z,12.20
2018-08-03T18:37:49.990Z,11.57
2018-08-03T18:40:18.523Z,12.37
2018-08-03T18:42:47.010Z,12.60
2018-08-03T18:45:15.481Z,11.43
2018-08-03T18:47:43.958Z,11.20
2018-08-03T18:50:12.425Z,11.50
2018-08-03T18:52:40.902Z,11.23
2018-08-03T18:55:09.825Z,11.47
2018-08-03T18:57:43.056Z,11.80
2018-08-03T19:00:12.586Z,11.00
2018-08-03T19:02:41.036Z,12.10
2018-08-03T19:05:13.545Z,12.00
2018-08-03T19:07:43.330Z,10.97
2018-08-03T19:10:13.877Z,11.73
2018-08-03T19:12:44.697Z,9.90
2018-08-03T19:15:15.982Z,11.10
2018-08-03T19:17:44.220Z,11.53
2018-08-03T19:20:17.449Z,11.83
2018-08-03T19:22:45.967Z,12.40
2018-08-03T19:25:20.533Z,10.77
2018-08-03T19:27:49.002Z,10.60
2018-08-03T19:30:17.483Z,10.70
2018-08-03T19:32:45.997Z,11.13
2018-08-03T19:35:14.492Z,10.93
2018-08-03T19:37:42.672Z,11.57
2018-08-03T19:40:11.151Z,11.10
2018-08-03T19:42:39.686Z,11.50
2018-08-03T19:45:08.288Z,11.30
2018-08-03T19:47:36.739Z,11.60
2018-08-03T19:50:09.721Z,11.50
2018-08-03T19:52:40.032Z,11.53
2018-08-03T19:55:08.132Z,10.90
2018-08-03T19:57:36.897Z,10.93
2018-08-03T20:00:10.554Z,11.80
2018-08-03T20:02:44.922Z,10.63
2018-08-03T20:05:15.644Z,12.67
2018-08-03T20:07:46.307Z,13.17
2018-08-03T20:10:17.006Z,12.00
2018-08-03T20:12:48.113Z,12.33
2018-08-03T20:15:18.245Z,13.47
2018-08-03T20:17:47.740Z,11.50
2018-08-03T20:20:20.843Z,11.30
2018-08-03T20:22:50.141Z,11.03
2018-08-03T20:25:18.790Z,10.60
2018-08-03T20:27:51.099Z,10.80
2018-08-03T20:30:23.271Z,10.30
2018-08-03T20:32:51.764Z,11.10
2018-08-03T20:35:23.157Z,10.70
2018-08-03T20:37:53.206Z,10.50
2018-08-03T20:40:23.925Z,11.50
2018-08-03T20:42:54.480Z,9.70
2018-08-03T20:45:26.624Z,9.63
2018-08-03T20:47:58.236Z,8.80
2018-08-03T20:50:30.634Z,9.77
2018-08-03T20:53:00.872Z,10.20
2018-08-03T20:55:31.660Z,10.20
2018-08-03T20:58:01.268Z,9.97
2018-08-03T21:00:32.280Z,10.50
2018-08-03T21:03:03.333Z,10.60
2018-08-03T21:05:31.801Z,10.60
2018-08-03T21:08:01.113Z,10.80
2018-08-03T21:10:30.735Z,10.97
2018-08-03T21:13:02.539Z,11.73
2018-08-03T21:15:35.154Z,12.10
2018-08-03T21:18:03.696Z,11.13
2018-08-03T21:20:33.989Z,10.73
2018-08-03T21:23:03.533Z,9.97
2018-08-03T21:25:35.188Z,11.00
2018-08-03T21:28:05.523Z,9.70
2018-08-03T21:30:34.162Z,9.73
2018-08-03T21:33:02.634Z,10.60
2018-08-03T21:35:32.648Z,11.63
2018-08-03T21:38:32.090Z,11.50
2018-08-03T21:41:01.670Z,10.60
2018-08-03T21:43:32.882Z,10.63
2018-08-03T21:46:03.250Z,10.60
2018-08-03T21:48:31.970Z,10.73
2018-08-03T21:51:00.725Z,9.67
2018-08-03T21:53:28.944Z,9.80
2018-08-03T21:55:57.430Z,10.50
2018-08-03T21:58:25.877Z,10.23
2018-08-03T22:00:54.682Z,10.10
2018-08-03T22:03:27.087Z,10.00
2018-08-03T22:05:58.590Z,11.47
2018-08-03T22:08:26.745Z,9.57
2018-08-03T22:10:56.256Z,11.13
2018-08-03T22:13:25.801Z,9.30
2018-08-03T22:15:55.546Z,9.53
2018-08-03T22:18:26.241Z,11.20
2018-08-03T22:20:57.073Z,10.77
2018-08-03T22:23:28.234Z,10.40
2018-08-03T22:26:00.691Z,10.17
2018-08-03T22:28:29.174Z,11.00
2018-08-03T22:30:57.626Z,9.70
2018-08-03T22:33:26.097Z,10.40
2018-08-03T22:35:54.669Z,11.40
2018-08-03T22:38:23.133Z,10.30
2018-08-03T22:40:51.577Z,10.80
2018-08-03T22:43:20.036Z,11.00
2018-08-03T22:45:48.481Z,10.47
2018-08-03T22:48:16.920Z,10.10
2018-08-03T22:50:45.349Z,10.00
2018-08-03T22:53:13.813Z,10.50
2018-08-03T22:55:42.285Z,11.07
2018-08-03T22:58:10.747Z,10.23
2018-08-03T23:00:39.249Z,11.27
2018-08-03T23:03:07.984Z,9.83
2018-08-03T23:05:36.609Z,10.57
2018-08-03T23:08:05.462Z,9.47
2018-08-03T23:10:33.976Z,10.73
2018-08-03T23:13:02.433Z,10.97
2018-08-03T23:15:30.910Z,10.77
2018-08-03T23:17:59.625Z,10.87
2018-08-03T23:20:28.324Z,10.47
2018-08-03T23:22:56.800Z,11.40
2018-08-03T23:25:25.290Z,11.27
2018-08-03T23:27:53.745Z,10.67
2018-08-03T23:30:22.206Z,10.07
2018-08-03T23:32:50.671Z,11.33
2018-08-03T23:35:19.149Z,11.37
2018-08-03T23:37:47.830Z,11.17
2018-08-03T23:40:16.302Z,11.60
2018-08-03T23:42:44.750Z,10.20
2018-08-03T23:45:13.217Z,10.37
2018-08-03T23:47:41.659Z,9.97
2018-08-03T23:50:15.731Z,10.37
2018-08-03T23:52:44.225Z,10.57
2018-08-03T23:55:12.748Z,9.60
2018-08-03T23:57:41.203Z,11.30
